Time;durP1;ratioP1;P1;durP2;ratioP2;P2;SDS_P1;SDS_P2;PMS_P1;PMS_P2;Temp;Humidity;BMP_temperature;BMP_pressure;BME280_temperature;BME280_humidity;BME280_pressure;Samples;Min_cycle;Max_cycle;Signal;HPM_P1;HPM_P2
2021/01/26 00:00:00;;;;;;;6.93;5.03;;;0.00;99.90;;;;;;5065825;28;20204;-69
2021/01/26 00:02:26;;;;;;;6.25;5.00;;;0.00;99.90;;;;;;5065890;28;20205;-69
2021/01/26 00:04:53;;;;;;;6.30;5.20;;;-0.10;99.90;;;;;;5066513;28;20584;-69
2021/01/26 00:07:19;;;;;;;6.35;5.05;;;-0.10;99.90;;;;;;5066968;28;20208;-69
2021/01/26 00:09:46;;;;;;;7.13;4.30;;;-0.10;99.90;;;;;;5065971;28;20231;-69
2021/01/26 00:12:12;;;;;;;4.47;4.00;;;-0.20;99.90;;;;;;5065514;28;20208;-69
2021/01/26 00:14:38;;;;;;;5.60;5.10;;;-0.10;99.90;;;;;;5066429;28;20224;-69
2021/01/26 00:17:04;;;;;;;8.48;5.93;;;-0.20;99.90;;;;;;5065730;28;20231;-69
2021/01/26 00:19:30;;;;;;;5.30;4.72;;;-0.20;99.90;;;;;;5066614;28;20254;-69
2021/01/26 00:21:57;;;;;;;7.07;5.45;;;-0.20;99.90;;;;;;5064936;28;20196;-70
2021/01/26 00:24:23;;;;;;;7.28;5.72;;;-0.20;99.90;;;;;;5066060;28;20208;-69
2021/01/26 00:26:50;;;;;;;7.32;5.40;;;-0.20;99.90;;;;;;5065606;28;20852;-70
2021/01/26 00:29:16;;;;;;;5.90;5.20;;;-0.30;99.90;;;;;;5065793;28;20216;-69
2021/01/26 00:31:42;;;;;;;7.18;5.35;;;-0.30;99.90;;;;;;5065206;28;20216;-70
2021/01/26 00:34:09;;;;;;;6.43;5.50;;;-0.40;99.90;;;;;;5065598;28;21022;-69
2021/01/26 00:36:35;;;;;;;6.95;5.53;;;-0.40;99.90;;;;;;5066504;28;20224;-69
2021/01/26 00:39:01;;;;;;;5.55;4.90;;;-0.40;99.90;;;;;;5069706;28;20215;-69
2021/01/26 00:41:27;;;;;;;7.55;5.53;;;-0.40;99.90;;;;;;5070050;28;20208;-69
2021/01/26 00:43:54;;;;;;;6.45;5.25;;;-0.40;99.90;;;;;;5069005;28;20433;-69
2021/01/26 00:46:21;;;;;;;7.72;5.82;;;-0.50;99.90;;;;;;5069760;28;20220;-70
2021/01/26 00:48:47;;;;;;;5.65;4.78;;;-0.50;99.90;;;;;;5069260;28;20223;-69
2021/01/26 00:51:13;;;;;;;6.70;6.00;;;-0.50;99.90;;;;;;5070463;28;20200;-70
2021/01/26 00:53:39;;;;;;;5.90;4.90;;;-0.60;99.90;;;;;;5199050;22;20285;-72
2021/01/26 00:56:06;;;;;;;6.53;5.40;;;-0.60;99.90;;;;;;5071022;28;20323;-72
2021/01/26 00:58:32;;;;;;;8.25;5.65;;;-0.70;99.90;;;;;;5071281;28;20212;-72
2021/01/26 01:00:59;;;;;;;6.20;5.07;;;-0.70;99.90;;;;;;5070960;28;20204;-72
2021/01/26 01:03:25;;;;;;;8.00;6.30;;;-0.80;99.90;;;;;;5070893;28;20197;-71
2021/01/26 01:05:52;;;;;;;7.10;5.32;;;-0.80;99.90;;;;;;5071430;28;20228;-71
2021/01/26 01:08:18;;;;;;;7.70;6.00;;;-0.80;99.90;;;;;;5071263;28;20208;-73
2021/01/26 01:10:44;;;;;;;7.30;6.30;;;-0.80;99.90;;;;;;5071976;28;20220;-73
2021/01/26 01:13:11;;;;;;;6.82;6.03;;;-0.80;99.90;;;;;;5071599;28;20204;-72
2021/01/26 01:15:39;;;;;;;8.40;5.00;;;-0.80;99.90;;;;;;5072640;28;20228;-72
2021/01/26 01:18:07;;;;;;;9.10;5.75;;;-0.80;99.90;;;;;;5071174;28;20207;-72
2021/01/26 01:20:34;;;;;;;7.22;6.10;;;-0.70;99.90;;;;;;5070902;28;20201;-72
2021/01/26 01:23:00;;;;;;;8.55;6.45;;;-0.70;99.90;;;;;;5070454;28;20201;-72
2021/01/26 01:25:26;;;;;;;6.22;5.40;;;-0.70;99.90;;;;;;5071193;28;20221;-72
2021/01/26 01:27:52;;;;;;;8.10;5.97;;;-0.80;99.90;;;;;;5071082;28;20306;-72
2021/01/26 01:30:21;;;;;;;6.45;5.70;;;-0.80;99.90;;;;;;5070673;28;20221;-72
2021/01/26 01:32:48;;;;;;;6.57;5.68;;;-0.80;99.90;;;;;;5070561;28;20211;-72
2021/01/26 01:35:16;;;;;;;7.13;5.47;;;-0.70;99.90;;;;;;5070839;28;20235;-72
2021/01/26 01:37:42;;;;;;;8.75;6.13;;;-0.80;99.90;;;;;;5070578;28;20230;-72
2021/01/26 01:40:11;;;;;;;6.35;4.95;;;-0.70;99.90;;;;;;5070615;28;20219;-72
2021/01/26 01:42:37;;;;;;;9.63;5.97;;;-0.70;99.90;;;;;;5069515;28;20211;-72
2021/01/26 01:45:05;;;;;;;6.55;5.10;;;-0.70;99.90;;;;;;5070596;28;20216;-72
2021/01/26 01:47:38;;;;;;;6.75;5.68;;;-0.70;99.90;;;;;;5070133;28;20211;-72
2021/01/26 01:50:10;;;;;;;7.13;6.05;;;-0.70;99.90;;;;;;5066744;28;20282;-72
2021/01/26 01:52:38;;;;;;;6.80;5.65;;;-0.70;99.90;;;;;;5067227;28;20712;-72
2021/01/26 01:55:09;;;;;;;6.97;5.53;;;-0.70;99.90;;;;;;5067405;28;20506;-73
2021/01/26 01:57:40;;;;;;;8.18;5.68;;;-0.70;99.90;;;;;;5067773;28;20208;-71
2021/01/26 02:00:09;;;;;;;7.30;5.05;;;-0.80;99.90;;;;;;5067285;28;20215;-73
2021/01/26 02:02:39;;;;;;;8.25;5.95;;;-0.80;99.90;;;;;;5067218;28;20204;-72
2021/01/26 02:05:07;;;;;;;6.70;6.10;;;-0.80;99.90;;;;;;5066755;28;20639;-72
2021/01/26 02:07:34;;;;;;;6.88;5.80;;;-0.80;99.90;;;;;;5067310;28;20200;-72
2021/01/26 02:10:01;;;;;;;7.30;5.55;;;-0.80;99.90;;;;;;5067135;28;20220;-73
2021/01/26 02:12:27;;;;;;;9.50;6.13;;;-0.70;99.90;;;;;;5066660;28;20204;-71
2021/01/26 02:14:57;;;;;;;6.18;5.00;;;-0.70;99.90;;;;;;5067028;28;20220;-72
2021/01/26 02:17:43;;;;;;;6.88;5.80;;;-0.70;99.90;;;;;;5066934;28;20200;-72
2021/01/26 02:20:44;;;;;;;8.70;5.82;;;-0.60;99.90;;;;;;5066935;28;20200;-72
2021/01/26 02:23:36;;;;;;;8.88;5.50;;;-0.60;99.90;;;;;;5066339;28;20262;-73
2021/01/26 02:26:50;;;;;;;7.13;5.47;;;-0.70;99.90;;;;;;5066840;28;20506;-72
2021/01/26 02:29:23;;;;;;;9.13;5.75;;;-0.80;99.90;;;;;;5066495;28;20608;-72
2021/01/26 02:32:16;;;;;;;7.85;5.00;;;-0.80;99.90;;;;;;5066373;28;20212;-72
2021/01/26 02:35:37;;;;;;;6.15;5.10;;;-0.80;99.90;;;;;;5066821;28;20707;-73
2021/01/26 02:38:48;;;;;;;5.68;4.80;;;-0.80;99.90;;;;;;5066391;28;20517;-71
2021/01/26 02:41:23;;;;;;;7.40;4.85;;;-0.80;99.90;;;;;;4964942;28;20211;-73
2021/01/26 02:44:02;;;;;;;7.35;4.93;;;-0.80;99.90;;;;;;5058633;28;20232;-72
2021/01/26 02:46:40;;;;;;;5.97;5.00;;;-0.70;99.90;;;;;;5066369;28;20220;-72
2021/01/26 02:49:16;;;;;;;7.78;5.65;;;-0.80;99.90;;;;;;5066122;28;20220;-72
2021/01/26 02:51:51;;;;;;;7.80;5.72;;;-0.80;99.90;;;;;;5066069;28;20200;-72
2021/01/26 02:54:27;;;;;;;6.72;5.85;;;-0.80;99.90;;;;;;5066074;28;20239;-72
2021/01/26 02:57:01;;;;;;;7.13;5.55;;;-0.80;99.90;;;;;;5066345;28;20200;-72
2021/01/26 02:59:32;;;;;;;7.40;5.78;;;-0.80;99.90;;;;;;5066060;28;20200;-72
2021/01/26 03:02:04;;;;;;;6.00;5.28;;;-0.80;99.90;;;;;;5065334;28;20204;-72
2021/01/26 03:04:36;;;;;;;7.03;5.85;;;-0.80;99.90;;;;;;5065990;28;20679;-72
2021/01/26 03:07:05;;;;;;;6.50;5.90;;;-0.70;99.90;;;;;;5066025;28;20195;-71
2021/01/26 03:09:37;;;;;;;9.25;6.35;;;-0.70;99.90;;;;;;5065729;28;20220;-72
2021/01/26 03:12:09;;;;;;;9.02;6.30;;;-0.70;99.90;;;;;;5066214;28;20558;-73
2021/01/26 03:14:40;;;;;;;9.30;5.88;;;-0.70;99.90;;;;;;5066778;28;20282;-72
2021/01/26 03:17:14;;;;;;;8.93;6.43;;;-0.70;99.90;;;;;;5065726;28;20208;-73
2021/01/26 03:19:44;;;;;;;10.32;6.90;;;-0.70;99.90;;;;;;5065862;28;20196;-72
2021/01/26 03:22:13;;;;;;;8.70;6.95;;;-0.70;99.90;;;;;;5065363;28;20615;-71
2021/01/26 03:24:41;;;;;;;7.55;5.50;;;-0.70;99.90;;;;;;5066299;28;20577;-72
2021/01/26 03:27:11;;;;;;;8.65;5.90;;;-0.70;99.90;;;;;;5065803;28;20204;-70
2021/01/26 03:29:41;;;;;;;9.35;6.38;;;-0.80;99.90;;;;;;5066140;28;20590;-71
2021/01/26 03:32:15;;;;;;;7.63;6.32;;;-0.80;99.90;;;;;;5064845;28;20208;-72
2021/01/26 03:34:41;;;;;;;7.95;6.45;;;-0.80;99.90;;;;;;5066130;28;20220;-72
2021/01/26 03:37:07;;;;;;;7.43;6.20;;;-0.80;99.90;;;;;;5065916;28;20239;-71
2021/01/26 03:39:34;;;;;;;7.55;5.38;;;-0.80;99.90;;;;;;5065950;28;20362;-73
2021/01/26 03:42:01;;;;;;;8.90;6.38;;;-0.90;99.90;;;;;;5064888;28;20204;-70
2021/01/26 03:44:29;;;;;;;8.45;5.55;;;-0.90;99.90;;;;;;5065845;28;20224;-72
2021/01/26 03:47:08;;;;;;;7.93;6.00;;;-0.90;99.90;;;;;;5065807;28;20208;-72
2021/01/26 03:49:53;;;;;;;7.60;5.57;;;-1.10;99.90;;;;;;5065591;28;20228;-72
2021/01/26 03:52:40;;;;;;;9.10;6.32;;;-1.10;99.90;;;;;;5065058;28;20212;-71
2021/01/26 03:55:17;;;;;;;7.45;6.07;;;-1.10;99.90;;;;;;5065781;28;20220;-71
2021/01/26 03:58:00;;;;;;;9.02;6.40;;;-1.20;99.90;;;;;;5066425;28;20229;-72
2021/01/26 04:00:35;;;;;;;10.52;6.60;;;-1.20;99.90;;;;;;5066264;28;20616;-72
2021/01/26 04:03:31;;;;;;;10.15;7.25;;;-1.30;99.90;;;;;;5065442;28;20582;-71
2021/01/26 04:06:02;;;;;;;10.32;6.57;;;-1.30;99.90;;;;;;5065905;28;20228;-72
2021/01/26 04:08:34;;;;;;;9.40;7.07;;;-1.30;99.90;;;;;;5065874;28;20208;-70
2021/01/26 04:11:07;;;;;;;9.80;6.28;;;-1.30;99.90;;;;;;5065347;28;20277;-70
2021/01/26 04:13:39;;;;;;;8.68;6.05;;;-1.20;99.90;;;;;;5068528;28;20204;-72
2021/01/26 04:16:07;;;;;;;9.85;7.10;;;-1.20;99.90;;;;;;5069326;28;20246;-72
2021/01/26 04:18:39;;;;;;;11.18;8.02;;;-1.20;99.90;;;;;;5069543;28;20270;-73
2021/01/26 04:21:07;;;;;;;11.90;7.47;;;-1.20;99.90;;;;;;5069133;28;20660;-72
2021/01/26 04:23:34;;;;;;;11.27;6.80;;;-1.10;99.90;;;;;;5068755;28;20208;-72
2021/01/26 04:26:05;;;;;;;8.82;7.32;;;-1.10;99.90;;;;;;5069135;28;20354;-72
2021/01/26 04:28:36;;;;;;;9.20;6.22;;;-1.10;99.90;;;;;;5069195;28;20200;-71
2021/01/26 04:31:02;;;;;;;7.50;5.90;;;-1.10;99.90;;;;;;5069149;28;20221;-72
2021/01/26 04:33:29;;;;;;;10.75;6.80;;;-1.00;99.90;;;;;;5068581;28;20196;-71
2021/01/26 04:35:56;;;;;;;8.73;6.63;;;-1.10;99.90;;;;;;5069015;28;20644;-71
2021/01/26 04:38:22;;;;;;;8.88;5.90;;;-1.00;99.90;;;;;;5063988;28;20201;-72
2021/01/26 04:40:48;;;;;;;10.75;6.70;;;-1.00;99.90;;;;;;5048815;28;20205;-71
2021/01/26 04:43:22;;;;;;;7.15;5.00;;;-1.00;99.90;;;;;;5048406;28;20558;-70
2021/01/26 04:45:59;;;;;;;6.60;5.03;;;-0.90;99.90;;;;;;5049023;28;20224;-71
2021/01/26 04:48:31;;;;;;;10.52;6.20;;;-0.80;99.90;;;;;;5049016;28;20211;-71
2021/01/26 04:51:06;;;;;;;6.10;5.05;;;-0.80;99.90;;;;;;5048712;28;20302;-71
2021/01/26 04:53:48;;;;;;;7.38;5.63;;;-0.80;99.90;;;;;;5047552;28;20219;-72
2021/01/26 04:56:21;;;;;;;6.90;4.93;;;-0.70;99.90;;;;;;5048207;28;21046;-73
2021/01/26 04:58:59;;;;;;;6.28;4.85;;;-0.60;99.90;;;;;;5048170;28;20209;-72
2021/01/26 05:01:40;;;;;;;7.75;5.07;;;-0.60;99.90;;;;;;5047812;28;20205;-71
2021/01/26 05:04:10;;;;;;;6.05;4.65;;;-0.60;99.90;;;;;;5047188;28;20257;-71
2021/01/26 05:06:41;;;;;;;6.70;5.00;;;-0.50;99.90;;;;;;5047607;28;20263;-71
2021/01/26 05:09:26;;;;;;;5.90;4.82;;;-0.50;99.90;;;;;;5047404;28;20208;-71
2021/01/26 05:11:54;;;;;;;7.10;5.40;;;-0.50;99.90;;;;;;5047055;28;20205;-71
2021/01/26 05:14:24;;;;;;;7.13;5.45;;;-0.50;99.90;;;;;;5047567;28;20208;-71
2021/01/26 05:16:57;;;;;;;6.97;5.10;;;-0.60;99.90;;;;;;5047592;28;20279;-71
2021/01/26 05:19:29;;;;;;;8.35;6.57;;;-0.50;99.90;;;;;;5046950;28;20459;-72
2021/01/26 05:22:03;;;;;;;7.03;5.90;;;-0.50;99.90;;;;;;5047346;28;20209;-71
2021/01/26 05:24:35;;;;;;;8.90;6.35;;;-0.50;99.90;;;;;;5046716;28;20588;-71
2021/01/26 05:27:02;;;;;;;8.00;6.05;;;-0.50;99.90;;;;;;5047264;28;20296;-70
2021/01/26 05:29:29;;;;;;;7.93;6.18;;;-0.40;99.90;;;;;;5046102;28;20225;-71
2021/01/26 05:31:59;;;;;;;7.22;5.82;;;-0.40;99.90;;;;;;5046713;28;20786;-72
2021/01/26 05:34:29;;;;;;;6.85;4.97;;;-0.40;99.90;;;;;;5047210;28;20833;-71
2021/01/26 05:36:55;;;;;;;9.10;6.10;;;-0.40;99.90;;;;;;5047504;28;20604;-71
2021/01/26 05:39:28;;;;;;;7.10;5.22;;;-0.40;99.90;;;;;;5046958;28;20204;-70
2021/01/26 05:41:56;;;;;;;6.00;5.32;;;-0.30;99.90;;;;;;5046641;28;20676;-70
2021/01/26 05:44:23;;;;;;;6.55;4.82;;;-0.30;99.90;;;;;;5047120;28;20212;-70
2021/01/26 05:46:49;;;;;;;6.25;5.18;;;-0.30;99.90;;;;;;5047218;28;20213;-71
2021/01/26 05:49:35;;;;;;;5.55;4.30;;;-0.30;99.90;;;;;;5047094;28;20704;-70
2021/01/26 05:52:01;;;;;;;6.50;4.60;;;-0.30;99.90;;;;;;5026038;28;564432;-71
2021/01/26 05:54:29;;;;;;;6.63;4.18;;;-0.30;99.90;;;;;;5047898;28;20251;-70
2021/01/26 05:56:57;;;;;;;5.18;4.07;;;-0.30;99.90;;;;;;5055463;28;20200;-71
2021/01/26 05:59:30;;;;;;;5.47;4.28;;;-0.30;99.90;;;;;;5063907;28;20203;-70
2021/01/26 06:02:09;;;;;;;7.53;4.47;;;-0.20;99.90;;;;;;5056387;28;20193;-70
2021/01/26 06:04:38;;;;;;;5.60;4.28;;;-0.20;99.90;;;;;;5052673;28;20213;-70
2021/01/26 06:07:06;;;;;;;6.30;4.15;;;-0.20;99.90;;;;;;5059968;28;20266;-71
2021/01/26 06:09:40;;;;;;;5.90;4.28;;;-0.20;99.90;;;;;;5058171;28;20310;-71
2021/01/26 06:12:16;;;;;;;4.35;3.70;;;-0.20;99.90;;;;;;5056483;28;20205;-71
2021/01/26 06:14:44;;;;;;;10.70;4.25;;;-0.10;99.90;;;;;;5052556;28;20216;-71
2021/01/26 06:17:14;;;;;;;5.65;4.10;;;-0.10;99.90;;;;;;5047271;28;20211;-71
2021/01/26 06:19:41;;;;;;;6.40;3.83;;;-0.20;99.90;;;;;;5047552;28;20205;-71
2021/01/26 06:22:07;;;;;;;5.63;3.83;;;-0.10;99.90;;;;;;5046792;28;20220;-70
2021/01/26 06:24:35;;;;;;;6.63;4.05;;;-0.10;99.90;;;;;;5047571;28;20221;-71
2021/01/26 06:27:22;;;;;;;4.65;4.13;;;-0.10;99.90;;;;;;5047174;28;20213;-70
2021/01/26 06:29:56;;;;;;;5.03;3.40;;;0.00;99.90;;;;;;5047200;28;20221;-71
2021/01/26 06:32:35;;;;;;;4.20;3.30;;;-0.10;99.90;;;;;;5046625;28;20220;-70
2021/01/26 06:35:11;;;;;;;5.45;4.60;;;-0.10;99.90;;;;;;5046796;28;20232;-71
2021/01/26 06:38:02;;;;;;;6.20;3.85;;;-0.10;99.90;;;;;;5047289;28;20200;-71
2021/01/26 06:40:42;;;;;;;5.15;3.70;;;-0.10;99.90;;;;;;5047280;28;20208;-70
2021/01/26 06:43:14;;;;;;;5.55;3.58;;;-0.10;99.90;;;;;;5046337;28;20213;-70
2021/01/26 06:45:51;;;;;;;4.90;3.53;;;-0.10;99.90;;;;;;5046385;28;20221;-71
2021/01/26 06:48:49;;;;;;;4.55;2.72;;;-0.10;99.90;;;;;;5046262;28;20207;-71
2021/01/26 06:51:35;;;;;;;4.45;3.30;;;-0.10;99.90;;;;;;5046588;28;20221;-72
2021/01/26 06:54:13;;;;;;;4.20;3.00;;;0.00;99.90;;;;;;5045703;28;20882;-72
2021/01/26 06:56:58;;;;;;;3.90;3.40;;;0.00;99.90;;;;;;5046656;28;20254;-71
2021/01/26 07:00:04;;;;;;;4.70;3.55;;;0.00;99.90;;;;;;5046810;28;20197;-70
2021/01/26 07:03:09;;;;;;;3.55;2.90;;;0.00;99.90;;;;;;5045576;28;20228;-70
2021/01/26 07:05:54;;;;;;;6.95;3.88;;;0.10;99.90;;;;;;5037333;28;20597;-71
2021/01/26 07:08:48;;;;;;;6.10;4.00;;;0.10;99.90;;;;;;5046536;28;20212;-70
2021/01/26 07:11:30;;;;;;;4.95;3.40;;;0.10;99.90;;;;;;5046207;28;20223;-71
2021/01/26 07:14:02;;;;;;;5.40;2.67;;;0.10;99.90;;;;;;5045561;28;20209;-71
2021/01/26 07:16:43;;;;;;;4.15;2.80;;;0.10;99.90;;;;;;5046219;28;20229;-70
2021/01/26 07:19:55;;;;;;;4.18;3.28;;;0.20;99.90;;;;;;5045974;28;20243;-71
2021/01/26 07:22:50;;;;;;;5.40;3.45;;;0.20;99.90;;;;;;5045685;28;20733;-71
2021/01/26 07:25:43;;;;;;;3.25;2.63;;;0.20;99.90;;;;;;5046125;28;20232;-72
2021/01/26 07:28:53;;;;;;;3.72;3.42;;;0.30;99.90;;;;;;5046075;28;20213;-72
2021/01/26 07:31:24;;;;;;;4.57;3.33;;;0.30;99.90;;;;;;5046270;28;20754;-72
2021/01/26 07:33:58;;;;;;;3.33;2.33;;;0.30;99.90;;;;;;5046104;28;20197;-71
2021/01/26 07:36:31;;;;;;;3.45;2.78;;;0.30;99.90;;;;;;5046002;28;20228;-71
2021/01/26 07:39:05;;;;;;;4.53;2.95;;;0.40;99.90;;;;;;5045965;28;20215;-71
2021/01/26 07:41:37;;;;;;;7.68;3.25;;;0.40;99.90;;;;;;5045984;28;20251;-70
2021/01/26 07:44:11;;;;;;;2.60;2.25;;;0.40;99.90;;;;;;5046025;28;20220;-70
2021/01/26 07:46:44;;;;;;;3.88;3.20;;;0.40;99.90;;;;;;5046456;28;20196;-70
2021/01/26 07:49:18;;;;;;;3.53;2.67;;;0.50;99.90;;;;;;5049955;28;20205;-71
2021/01/26 07:51:49;;;;;;;5.82;3.10;;;0.50;99.90;;;;;;5049616;28;20208;-70
2021/01/26 07:54:27;;;;;;;3.63;2.58;;;0.50;99.90;;;;;;5049980;28;20201;-71
2021/01/26 07:56:57;;;;;;;5.20;2.72;;;0.60;99.90;;;;;;5049893;28;20216;-70
2021/01/26 07:59:28;;;;;;;3.40;2.53;;;0.70;99.90;;;;;;5050338;28;20207;-71
2021/01/26 08:01:56;;;;;;;6.10;2.70;;;0.70;99.90;;;;;;5049548;28;20437;-71
2021/01/26 08:04:23;;;;;;;5.07;2.30;;;0.70;99.90;;;;;;5049967;28;20719;-70
2021/01/26 08:06:53;;;;;;;3.05;2.70;;;0.70;99.90;;;;;;5050431;28;20216;-70
2021/01/26 08:09:26;;;;;;;8.18;3.20;;;0.70;99.90;;;;;;5049684;28;20208;-71
2021/01/26 08:11:57;;;;;;;7.28;2.95;;;0.70;99.90;;;;;;5049513;28;20279;-71
2021/01/26 08:14:33;;;;;;;5.43;2.75;;;0.70;99.90;;;;;;5047216;28;20212;-70
2021/01/26 08:17:01;;;;;;;2.83;2.25;;;0.80;99.90;;;;;;5062930;28;20706;-70
2021/01/26 08:19:30;;;;;;;2.85;2.45;;;0.90;99.90;;;;;;5068034;28;20587;-70
2021/01/26 08:21:58;;;;;;;5.63;2.50;;;0.90;99.90;;;;;;5066156;28;20614;-71
2021/01/26 08:24:34;;;;;;;9.77;2.85;;;0.90;99.90;;;;;;5068602;28;20200;-70
2021/01/26 08:27:26;;;;;;;7.18;2.75;;;0.90;99.90;;;;;;5068341;28;20537;-70
2021/01/26 08:29:54;;;;;;;5.63;2.60;;;1.00;99.90;;;;;;5068799;28;20221;-71
2021/01/26 08:32:44;;;;;;;5.00;3.08;;;1.00;99.90;;;;;;5066329;28;20204;-70
2021/01/26 08:35:13;;;;;;;7.28;2.90;;;1.20;99.90;;;;;;5059244;28;20311;-70
2021/01/26 08:37:50;;;;;;;4.95;3.40;;;1.20;99.90;;;;;;5067616;28;20496;-70
2021/01/26 08:40:22;;;;;;;5.82;2.85;;;1.20;99.90;;;;;;5067806;28;20204;-71
2021/01/26 08:42:59;;;;;;;6.38;3.30;;;1.20;99.90;;;;;;5064903;28;20204;-71
2021/01/26 08:45:52;;;;;;;4.45;3.08;;;1.10;99.90;;;;;;5067684;28;20224;-71
2021/01/26 08:48:28;;;;;;;5.82;3.10;;;1.10;99.90;;;;;;5067210;28;20231;-71
2021/01/26 08:51:21;;;;;;;4.57;3.50;;;1.10;99.90;;;;;;5066727;28;20278;-70
2021/01/26 08:53:47;;;;;;;4.60;3.72;;;1.10;99.90;;;;;;5065102;28;20594;-70
2021/01/26 08:56:36;;;;;;;4.70;3.50;;;1.10;99.90;;;;;;5066554;28;20228;-71
2021/01/26 08:59:06;;;;;;;6.18;4.50;;;1.00;99.90;;;;;;5067167;28;20226;-71
2021/01/26 09:01:49;;;;;;;4.35;3.60;;;1.00;99.90;;;;;;5067371;28;20232;-71
2021/01/26 09:04:52;;;;;;;4.05;3.65;;;1.00;99.90;;;;;;5067016;28;21041;-71
2021/01/26 09:07:51;;;;;;;6.00;3.88;;;0.90;99.90;;;;;;5067586;28;20242;-71
2021/01/26 09:10:30;;;;;;;4.00;3.60;;;0.90;99.90;;;;;;5066421;28;20221;-70
2021/01/26 09:13:06;;;;;;;6.88;3.78;;;0.90;99.90;;;;;;5065089;28;20540;-71
2021/01/26 09:15:34;;;;;;;8.38;3.88;;;1.00;99.90;;;;;;5066985;28;20220;-72
2021/01/26 09:18:02;;;;;;;6.03;3.72;;;0.90;99.90;;;;;;5066591;28;20226;-71
2021/01/26 09:20:31;;;;;;;3.80;3.40;;;1.00;99.90;;;;;;5067018;28;20594;-71
2021/01/26 09:23:03;;;;;;;4.10;3.25;;;1.00;99.90;;;;;;5063976;28;20204;-70
2021/01/26 09:25:33;;;;;;;10.18;3.92;;;1.00;99.90;;;;;;5066284;28;20224;-71
2021/01/26 09:28:01;;;;;;;5.18;3.65;;;1.00;99.90;;;;;;5066420;28;20232;-71
2021/01/26 09:30:29;;;;;;;4.22;3.00;;;1.00;99.90;;;;;;5066995;28;20318;-70
2021/01/26 09:33:03;;;;;;;4.03;3.60;;;0.90;99.90;;;;;;5063587;28;20257;-71
2021/01/26 09:35:33;;;;;;;4.57;2.92;;;0.80;99.90;;;;;;5066681;28;20229;-71
2021/01/26 09:38:07;;;;;;;2.92;2.50;;;0.90;99.90;;;;;;5066648;28;20209;-70
2021/01/26 09:40:33;;;;;;;3.40;3.10;;;1.00;99.90;;;;;;5066359;28;20266;-70
2021/01/26 09:43:18;;;;;;;3.58;2.85;;;1.10;99.90;;;;;;5063448;28;20859;-71
2021/01/26 09:45:45;;;;;;;4.43;2.63;;;1.20;99.90;;;;;;5066206;28;20228;-70
2021/01/26 09:48:26;;;;;;;3.45;2.80;;;1.30;99.90;;;;;;5066286;28;20208;-70
2021/01/26 09:50:52;;;;;;;4.65;2.40;;;1.50;99.90;;;;;;5058213;28;20220;-70
2021/01/26 09:53:22;;;;;;;4.22;3.05;;;1.70;99.90;;;;;;5064034;28;20231;-70
2021/01/26 09:55:53;;;;;;;3.35;2.55;;;1.90;99.90;;;;;;5066814;28;20244;-70
2021/01/26 09:58:19;;;;;;;3.28;2.42;;;2.00;99.90;;;;;;5059952;28;20247;-70
2021/01/26 10:00:46;;;;;;;3.67;2.90;;;1.90;99.90;;;;;;5065883;28;20208;-73
2021/01/26 10:03:13;;;;;;;3.63;2.50;;;1.90;99.90;;;;;;5064490;28;20209;-70
2021/01/26 10:05:40;;;;;;;3.38;2.58;;;2.00;99.90;;;;;;5067203;28;20242;-69
2021/01/26 10:08:13;;;;;;;6.20;2.70;;;1.90;99.90;;;;;;5066625;28;20208;-70
2021/01/26 10:10:41;;;;;;;8.15;4.65;;;1.90;99.90;;;;;;5057725;28;20266;-71
2021/01/26 10:13:24;;;;;;;3.92;2.65;;;1.90;99.90;;;;;;5064960;28;20239;-70
2021/01/26 10:15:51;;;;;;;3.28;2.30;;;1.90;99.90;;;;;;5066468;28;20220;-69
2021/01/26 10:18:19;;;;;;;4.00;2.65;;;1.90;99.90;;;;;;5067695;28;20204;-70
2021/01/26 10:21:02;;;;;;;3.83;2.40;;;1.90;99.90;;;;;;5067843;28;20208;-70
2021/01/26 10:23:32;;;;;;;3.72;2.80;;;1.90;99.90;;;;;;5064047;28;20719;-70
2021/01/26 10:26:07;;;;;;;2.95;2.30;;;2.00;99.90;;;;;;5066113;28;20246;-70
2021/01/26 10:28:34;;;;;;;2.63;2.38;;;2.10;99.90;;;;;;5067635;28;20200;-70
2021/01/26 10:31:00;;;;;;;3.95;2.45;;;2.70;99.90;;;;;;5066303;28;20225;-71
2021/01/26 10:33:35;;;;;;;3.05;2.30;;;4.20;99.90;;;;;;5064209;28;20204;-71
2021/01/26 10:36:36;;;;;;;5.30;2.25;;;7.10;99.90;;;;;;5060469;28;20346;-71
2021/01/26 10:39:21;;;;;;;4.10;2.13;;;11.20;97.10;;;;;;4984087;28;20211;-70
2021/01/26 10:41:56;;;;;;;6.47;2.70;;;12.80;93.80;;;;;;4977369;28;20207;-70
2021/01/26 10:44:23;;;;;;;5.80;2.50;;;12.60;92.70;;;;;;5030381;28;20883;-70
2021/01/26 10:46:50;;;;;;;2.85;2.38;;;10.90;92.90;;;;;;5065106;28;20247;-70
2021/01/26 10:49:23;;;;;;;3.20;2.22;;;9.20;95.20;;;;;;5065249;28;20209;-71
2021/01/26 10:51:50;;;;;;;4.18;2.20;;;7.80;96.40;;;;;;5062935;28;20232;-70
2021/01/26 10:54:16;;;;;;;2.35;2.00;;;6.30;97.80;;;;;;5067366;28;20681;-71
2021/01/26 10:56:44;;;;;;;4.13;2.50;;;5.30;99.50;;;;;;5067006;28;20851;-71
2021/01/26 10:59:10;;;;;;;4.97;2.42;;;4.70;99.90;;;;;;5065096;28;20216;-70
2021/01/26 11:01:40;;;;;;;4.13;2.65;;;4.20;99.90;;;;;;5062801;28;20196;-70
2021/01/26 11:04:06;;;;;;;3.08;2.40;;;3.90;99.90;;;;;;5057161;28;20201;-72
2021/01/26 11:06:33;;;;;;;8.57;2.92;;;3.60;99.90;;;;;;5064997;28;20767;-70
2021/01/26 11:09:00;;;;;;;5.30;2.75;;;3.30;99.90;;;;;;5064656;28;20207;-70
2021/01/26 11:11:29;;;;;;;4.13;2.63;;;3.10;99.90;;;;;;5064110;28;20228;-72
2021/01/26 11:13:56;;;;;;;3.28;2.78;;;3.00;99.90;;;;;;5062372;28;20586;-69
2021/01/26 11:16:24;;;;;;;4.57;2.65;;;2.90;99.90;;;;;;5064628;28;20232;-72
2021/01/26 11:18:50;;;;;;;3.55;2.65;;;2.90;99.90;;;;;;5064841;28;20215;-71
2021/01/26 11:21:16;;;;;;;3.25;2.95;;;2.70;99.90;;;;;;5063754;28;20204;-71
2021/01/26 11:23:43;;;;;;;3.90;2.40;;;2.70;99.90;;;;;;5062404;28;20208;-71
2021/01/26 11:26:14;;;;;;;2.75;2.25;;;2.60;99.90;;;;;;5055323;28;20709;-71
2021/01/26 11:28:41;;;;;;;3.03;2.15;;;2.50;99.90;;;;;;5064899;28;20200;-70
2021/01/26 11:31:07;;;;;;;5.97;2.78;;;2.40;99.90;;;;;;5063965;28;20235;-71
2021/01/26 11:33:35;;;;;;;4.40;2.60;;;2.40;99.90;;;;;;5061995;28;20204;-70
2021/01/26 11:36:01;;;;;;;5.18;2.42;;;2.40;99.90;;;;;;5064258;28;20782;-72
2021/01/26 11:38:28;;;;;;;3.63;2.55;;;2.40;99.90;;;;;;5064610;28;20691;-71
2021/01/26 11:40:56;;;;;;;3.38;2.28;;;2.40;99.90;;;;;;5064705;28;20200;-71
2021/01/26 11:43:23;;;;;;;3.03;2.28;;;2.30;99.90;;;;;;5062006;28;20228;-70
2021/01/26 11:45:50;;;;;;;2.28;1.75;;;2.30;99.90;;;;;;5064324;28;20232;-71
2021/01/26 11:48:16;;;;;;;6.05;2.03;;;2.30;99.90;;;;;;5064697;28;20554;-70
2021/01/26 11:50:42;;;;;;;4.40;2.47;;;2.30;99.90;;;;;;5064594;28;20235;-70
2021/01/26 11:53:11;;;;;;;2.20;1.92;;;2.30;99.90;;;;;;5061993;28;20216;-70
2021/01/26 11:55:38;;;;;;;4.22;2.15;;;2.40;99.90;;;;;;5064139;28;20226;-70
2021/01/26 11:58:05;;;;;;;5.10;2.50;;;2.60;99.90;;;;;;5054543;28;20197;-71
2021/01/26 12:00:34;;;;;;;3.15;2.55;;;2.80;99.90;;;;;;5045715;28;20189;-71
2021/01/26 12:03:01;;;;;;;2.80;2.50;;;3.00;99.90;;;;;;5047796;28;20201;-71
2021/01/26 12:05:30;;;;;;;4.82;2.72;;;3.20;99.90;;;;;;5049415;28;20270;-70
2021/01/26 12:07:56;;;;;;;1.90;1.70;;;3.60;99.90;;;;;;5045949;28;20204;-70
2021/01/26 12:10:24;;;;;;;2.97;2.30;;;4.30;99.90;;;;;;5057710;28;20265;-70
2021/01/26 12:12:51;;;;;;;3.20;2.25;;;4.60;99.90;;;;;;5052046;28;20240;-71
2021/01/26 12:15:20;;;;;;;6.45;2.40;;;5.00;99.90;;;;;;5052578;28;20221;-71
2021/01/26 12:17:47;;;;;;;8.88;2.15;;;5.00;99.80;;;;;;5050257;28;20207;-70
2021/01/26 12:20:14;;;;;;;3.00;2.08;;;4.90;99.90;;;;;;5051263;28;20185;-71
2021/01/26 12:22:41;;;;;;;3.15;1.98;;;4.50;99.90;;;;;;5052864;28;20643;-71
2021/01/26 12:25:08;;;;;;;4.05;2.35;;;4.40;99.90;;;;;;5051440;28;20583;-71
2021/01/26 12:27:34;;;;;;;3.95;1.77;;;4.10;99.90;;;;;;5050773;28;20204;-71
2021/01/26 12:30:01;;;;;;;4.13;2.25;;;3.80;99.90;;;;;;5054144;28;20227;-71
2021/01/26 12:32:27;;;;;;;2.63;2.00;;;3.70;99.90;;;;;;5050049;28;20228;-70
2021/01/26 12:34:54;;;;;;;2.83;2.05;;;3.60;99.90;;;;;;5054118;28;20228;-70
2021/01/26 12:37:20;;;;;;;2.95;2.20;;;3.50;99.90;;;;;;5058494;28;20207;-70
2021/01/26 12:39:47;;;;;;;2.15;1.95;;;3.40;99.90;;;;;;5065287;28;20204;-70
2021/01/26 12:42:13;;;;;;;7.07;3.55;;;3.30;99.90;;;;;;5062989;28;20204;-71
2021/01/26 12:44:39;;;;;;;2.75;2.00;;;3.20;99.90;;;;;;5067647;28;20331;-70
2021/01/26 12:47:05;;;;;;;3.50;1.98;;;3.20;99.90;;;;;;5067844;28;20402;-70
2021/01/26 12:49:32;;;;;;;4.25;2.15;;;3.20;99.90;;;;;;5067947;28;20211;-72
2021/01/26 12:51:59;;;;;;;3.97;2.25;;;3.20;99.90;;;;;;5064724;28;20259;-71
2021/01/26 12:54:25;;;;;;;3.35;1.77;;;3.20;99.90;;;;;;5068045;28;20205;-71
2021/01/26 12:56:52;;;;;;;5.65;2.33;;;3.20;99.90;;;;;;5067371;28;20204;-71
2021/01/26 12:59:19;;;;;;;3.53;1.98;;;3.10;99.90;;;;;;5067349;28;20212;-72
2021/01/26 13:01:45;;;;;;;2.53;2.33;;;3.20;99.90;;;;;;5064491;28;20234;-70
2021/01/26 13:04:11;;;;;;;2.80;2.00;;;3.20;99.90;;;;;;5067037;28;20254;-72
2021/01/26 13:06:37;;;;;;;4.85;1.98;;;3.20;99.90;;;;;;5067286;28;20220;-72
2021/01/26 13:09:06;;;;;;;3.20;2.45;;;3.20;99.90;;;;;;5067042;28;20196;-71
2021/01/26 13:11:32;;;;;;;3.30;2.10;;;3.20;99.90;;;;;;5065586;28;20737;-71
2021/01/26 13:13:59;;;;;;;6.57;2.10;;;3.30;99.90;;;;;;5064416;28;20687;-71
2021/01/26 13:16:25;;;;;;;3.38;1.95;;;3.40;99.90;;;;;;5067437;28;20305;-71